sensor_id;sensor_type;location;lat;lon;timestamp;temperature;humidity
41290;DHT22;36117;46.680;11.154;2022-09-09T00:02:04;23.70;72.00
41290;DHT22;36117;46.680;11.154;2022-09-09T00:04:33;23.80;72.30
41290;DHT22;36117;46.680;11.154;2022-09-09T00:09:27;24.00;72.20
41290;DHT22;36117;46.680;11.154;2022-09-09T00:15:07;23.90;72.00
41290;DHT22;36117;46.680;11.154;2022-09-09T00:20:31;23.90;72.60
41290;DHT22;36117;46.680;11.154;2022-09-09T00:23:19;24.10;72.30
41290;DHT22;36117;46.680;11.154;2022-09-09T00:26:04;24.30;71.90
41290;DHT22;36117;46.680;11.154;2022-09-09T00:28:35;24.00;72.30
41290;DHT22;36117;46.680;11.154;2022-09-09T00:31:24;24.10;72.30
41290;DHT22;36117;46.680;11.154;2022-09-09T00:33:53;24.00;71.90
41290;DHT22;36117;46.680;11.154;2022-09-09T00:36:22;23.80;73.10
41290;DHT22;36117;46.680;11.154;2022-09-09T00:38:56;24.20;72.10
41290;DHT22;36117;46.680;11.154;2022-09-09T00:49:43;24.10;71.50
41290;DHT22;36117;46.680;11.154;2022-09-09T00:55:21;23.60;73.90
41290;DHT22;36117;46.680;11.154;2022-09-09T00:57:52;23.10;75.80
41290;DHT22;36117;46.680;11.154;2022-09-09T01:10:50;23.50;73.20
41290;DHT22;36117;46.680;11.154;2022-09-09T01:13:28;23.50;73.70
41290;DHT22;36117;46.680;11.154;2022-09-09T01:15:59;23.70;73.80
41290;DHT22;36117;46.680;11.154;2022-09-09T01:18:34;23.80;73.30
41290;DHT22;36117;46.680;11.154;2022-09-09T01:21:25;23.90;73.30
41290;DHT22;36117;46.680;11.154;2022-09-09T01:24:22;23.90;72.70
41290;DHT22;36117;46.680;11.154;2022-09-09T01:26:54;23.60;74.60
41290;DHT22;36117;46.680;11.154;2022-09-09T01:29:22;23.40;75.40
41290;DHT22;36117;46.680;11.154;2022-09-09T01:32:01;23.40;75.50
41290;DHT22;36117;46.680;11.154;2022-09-09T01:34:38;23.40;75.60
41290;DHT22;36117;46.680;11.154;2022-09-09T01:37:07;23.70;75.40
41290;DHT22;36117;46.680;11.154;2022-09-09T01:39:36;23.90;74.40
41290;DHT22;36117;46.680;11.154;2022-09-09T01:42:05;23.90;73.90
41290;DHT22;36117;46.680;11.154;2022-09-09T01:44:34;23.90;74.50
41290;DHT22;36117;46.680;11.154;2022-09-09T01:47:00;23.50;75.80
41290;DHT22;36117;46.680;11.154;2022-09-09T01:49:26;23.30;76.70
41290;DHT22;36117;46.680;11.154;2022-09-09T01:51:54;23.30;77.00
41290;DHT22;36117;46.680;11.154;2022-09-09T01:54:23;23.50;76.60
41290;DHT22;36117;46.680;11.154;2022-09-09T01:57:29;23.50;75.70
41290;DHT22;36117;46.680;11.154;2022-09-09T02:03:08;23.50;76.00
41290;DHT22;36117;46.680;11.154;2022-09-09T02:05:39;23.70;75.30
41290;DHT22;36117;46.680;11.154;2022-09-09T02:08:32;23.10;76.40
41290;DHT22;36117;46.680;11.154;2022-09-09T02:11:13;23.10;77.40
41290;DHT22;36117;46.680;11.154;2022-09-09T02:13:40;23.20;76.80
41290;DHT22;36117;46.680;11.154;2022-09-09T02:21:23;23.20;77.00
41290;DHT22;36117;46.680;11.154;2022-09-09T02:23:50;23.20;77.70
41290;DHT22;36117;46.680;11.154;2022-09-09T02:26:19;23.00;78.60
41290;DHT22;36117;46.680;11.154;2022-09-09T02:28:51;22.80;80.30
41290;DHT22;36117;46.680;11.154;2022-09-09T02:31:21;22.50;81.60
41290;DHT22;36117;46.680;11.154;2022-09-09T02:33:59;22.40;81.90
41290;DHT22;36117;46.680;11.154;2022-09-09T02:36:29;22.70;81.30
41290;DHT22;36117;46.680;11.154;2022-09-09T02:38:57;22.90;80.30
41290;DHT22;36117;46.680;11.154;2022-09-09T02:41:32;23.20;79.40
41290;DHT22;36117;46.680;11.154;2022-09-09T02:43:59;23.20;79.20
41290;DHT22;36117;46.680;11.154;2022-09-09T02:49:45;23.20;79.50
41290;DHT22;36117;46.680;11.154;2022-09-09T02:52:06;23.20;79.00
41290;DHT22;36117;46.680;11.154;2022-09-09T02:54:35;22.90;79.80
41290;DHT22;36117;46.680;11.154;2022-09-09T02:57:16;22.80;80.10
41290;DHT22;36117;46.680;11.154;2022-09-09T02:59:44;22.80;80.30
41290;DHT22;36117;46.680;11.154;2022-09-09T03:02:11;23.00;79.70
41290;DHT22;36117;46.680;11.154;2022-09-09T03:04:38;23.10;79.20
41290;DHT22;36117;46.680;11.154;2022-09-09T03:07:04;23.30;78.30
41290;DHT22;36117;46.680;11.154;2022-09-09T03:09:31;23.60;77.50
41290;DHT22;36117;46.680;11.154;2022-09-09T03:11:58;23.10;78.40
41290;DHT22;36117;46.680;11.154;2022-09-09T03:14:24;23.20;78.40
41290;DHT22;36117;46.680;11.154;2022-09-09T03:16:51;23.40;78.20
41290;DHT22;36117;46.680;11.154;2022-09-09T03:19:17;23.30;78.20
41290;DHT22;36117;46.680;11.154;2022-09-09T03:21:45;23.10;78.90
41290;DHT22;36117;46.680;11.154;2022-09-09T03:24:11;23.20;79.00
41290;DHT22;36117;46.680;11.154;2022-09-09T03:26:37;23.00;79.10
41290;DHT22;36117;46.680;11.154;2022-09-09T03:29:04;23.10;78.60
41290;DHT22;36117;46.680;11.154;2022-09-09T03:31:35;23.20;79.50
41290;DHT22;36117;46.680;11.154;2022-09-09T03:34:02;23.10;79.10
41290;DHT22;36117;46.680;11.154;2022-09-09T03:36:28;23.00;79.50
41290;DHT22;36117;46.680;11.154;2022-09-09T03:38:55;23.00;79.40
41290;DHT22;36117;46.680;11.154;2022-09-09T03:41:22;23.10;79.00
41290;DHT22;36117;46.680;11.154;2022-09-09T03:43:52;23.00;79.30
41290;DHT22;36117;46.680;11.154;2022-09-09T03:46:24;23.10;79.80
41290;DHT22;36117;46.680;11.154;2022-09-09T03:48:50;22.80;80.10
41290;DHT22;36117;46.680;11.154;2022-09-09T03:51:17;22.90;80.30
41290;DHT22;36117;46.680;11.154;2022-09-09T03:53:44;23.20;79.40
41290;DHT22;36117;46.680;11.154;2022-09-09T03:56:09;23.30;78.40
41290;DHT22;36117;46.680;11.154;2022-09-09T03:58:36;23.40;78.10
41290;DHT22;36117;46.680;11.154;2022-09-09T04:01:05;23.40;77.80
41290;DHT22;36117;46.680;11.154;2022-09-09T04:03:32;23.10;78.10
41290;DHT22;36117;46.680;11.154;2022-09-09T04:05:59;23.10;78.20
41290;DHT22;36117;46.680;11.154;2022-09-09T04:08:26;23.30;77.60
41290;DHT22;36117;46.680;11.154;2022-09-09T04:10:52;23.30;77.10
41290;DHT22;36117;46.680;11.154;2022-09-09T04:13:19;23.40;77.10
41290;DHT22;36117;46.680;11.154;2022-09-09T04:15:54;23.40;78.10
41290;DHT22;36117;46.680;11.154;2022-09-09T04:18:38;23.20;79.40
41290;DHT22;36117;46.680;11.154;2022-09-09T04:21:05;23.20;78.90
41290;DHT22;36117;46.680;11.154;2022-09-09T04:23:33;23.10;79.10
41290;DHT22;36117;46.680;11.154;2022-09-09T04:26:00;23.10;79.40
41290;DHT22;36117;46.680;11.154;2022-09-09T04:28:32;23.10;79.10
41290;DHT22;36117;46.680;11.154;2022-09-09T04:31:26;22.90;79.30
41290;DHT22;36117;46.680;11.154;2022-09-09T04:33:52;22.30;80.50
41290;DHT22;36117;46.680;11.154;2022-09-09T04:36:18;22.00;82.40
41290;DHT22;36117;46.680;11.154;2022-09-09T04:38:45;22.20;81.40
41290;DHT22;36117;46.680;11.154;2022-09-09T04:41:12;22.50;82.00
41290;DHT22;36117;46.680;11.154;2022-09-09T04:43:38;22.40;82.50
41290;DHT22;36117;46.680;11.154;2022-09-09T04:46:05;22.20;82.70
41290;DHT22;36117;46.680;11.154;2022-09-09T04:48:31;21.80;83.90
41290;DHT22;36117;46.680;11.154;2022-09-09T04:51:05;22.10;83.90
41290;DHT22;36117;46.680;11.154;2022-09-09T04:53:31;22.00;84.10
41290;DHT22;36117;46.680;11.154;2022-09-09T04:56:05;21.60;85.30
41290;DHT22;36117;46.680;11.154;2022-09-09T04:58:32;21.90;85.50
41290;DHT22;36117;46.680;11.154;2022-09-09T05:01:17;22.30;84.00
41290;DHT22;36117;46.680;11.154;2022-09-09T05:03:44;22.80;82.50
41290;DHT22;36117;46.680;11.154;2022-09-09T05:06:13;22.70;81.80
41290;DHT22;36117;46.680;11.154;2022-09-09T05:08:41;22.80;82.00
41290;DHT22;36117;46.680;11.154;2022-09-09T05:11:33;23.20;80.70
41290;DHT22;36117;46.680;11.154;2022-09-09T05:14:01;23.30;80.20
41290;DHT22;36117;46.680;11.154;2022-09-09T05:16:27;23.30;79.80
41290;DHT22;36117;46.680;11.154;2022-09-09T05:18:53;23.20;80.20
41290;DHT22;36117;46.680;11.154;2022-09-09T05:21:22;23.20;80.20
41290;DHT22;36117;46.680;11.154;2022-09-09T05:23:49;22.90;81.30
41290;DHT22;36117;46.680;11.154;2022-09-09T05:26:21;23.20;81.60
41290;DHT22;36117;46.680;11.154;2022-09-09T05:28:47;23.30;81.60
41290;DHT22;36117;46.680;11.154;2022-09-09T05:31:15;23.20;82.80
41290;DHT22;36117;46.680;11.154;2022-09-09T05:33:43;23.20;82.40
41290;DHT22;36117;46.680;11.154;2022-09-09T05:36:11;23.30;83.00
41290;DHT22;36117;46.680;11.154;2022-09-09T05:38:40;23.50;82.30
41290;DHT22;36117;46.680;11.154;2022-09-09T05:41:07;23.10;83.00
41290;DHT22;36117;46.680;11.154;2022-09-09T05:43:33;23.00;85.10
41290;DHT22;36117;46.680;11.154;2022-09-09T05:46:08;23.30;84.80
41290;DHT22;36117;46.680;11.154;2022-09-09T05:48:35;23.40;84.50
41290;DHT22;36117;46.680;11.154;2022-09-09T05:51:04;23.50;83.80
41290;DHT22;36117;46.680;11.154;2022-09-09T05:53:30;23.50;83.20
41290;DHT22;36117;46.680;11.154;2022-09-09T05:56:05;23.40;83.60
41290;DHT22;36117;46.680;11.154;2022-09-09T05:58:32;23.40;82.40
41290;DHT22;36117;46.680;11.154;2022-09-09T06:01:07;23.00;84.30
41290;DHT22;36117;46.680;11.154;2022-09-09T06:03:38;22.90;84.50
41290;DHT22;36117;46.680;11.154;2022-09-09T06:06:06;23.10;85.20
41290;DHT22;36117;46.680;11.154;2022-09-09T06:08:37;23.00;86.10
41290;DHT22;36117;46.680;11.154;2022-09-09T06:11:07;23.00;85.90
41290;DHT22;36117;46.680;11.154;2022-09-09T06:13:34;22.80;85.70
41290;DHT22;36117;46.680;11.154;2022-09-09T06:16:00;23.10;85.10
41290;DHT22;36117;46.680;11.154;2022-09-09T06:18:26;22.90;84.90
41290;DHT22;36117;46.680;11.154;2022-09-09T06:20:59;22.70;87.00
41290;DHT22;36117;46.680;11.154;2022-09-09T06:23:33;22.60;87.80
41290;DHT22;36117;46.680;11.154;2022-09-09T06:26:11;23.10;86.10
41290;DHT22;36117;46.680;11.154;2022-09-09T06:28:38;22.90;85.90
41290;DHT22;36117;46.680;11.154;2022-09-09T06:31:09;22.50;87.00
41290;DHT22;36117;46.680;11.154;2022-09-09T06:33:38;22.20;88.50
41290;DHT22;36117;46.680;11.154;2022-09-09T06:36:07;22.00;90.20
41290;DHT22;36117;46.680;11.154;2022-09-09T06:38:36;22.30;90.70
41290;DHT22;36117;46.680;11.154;2022-09-09T06:41:02;22.60;90.00
41290;DHT22;36117;46.680;11.154;2022-09-09T06:43:28;22.70;89.20
41290;DHT22;36117;46.680;11.154;2022-09-09T06:46:03;22.80;88.80
41290;DHT22;36117;46.680;11.154;2022-09-09T06:48:29;22.90;87.80
41290;DHT22;36117;46.680;11.154;2022-09-09T06:51:18;22.70;87.90
41290;DHT22;36117;46.680;11.154;2022-09-09T06:53:46;22.60;86.60
41290;DHT22;36117;46.680;11.154;2022-09-09T06:56:21;22.60;86.30
41290;DHT22;36117;46.680;11.154;2022-09-09T06:58:53;22.40;86.70
41290;DHT22;36117;46.680;11.154;2022-09-09T07:01:27;22.10;87.10
41290;DHT22;36117;46.680;11.154;2022-09-09T07:03:56;22.10;88.70
41290;DHT22;36117;46.680;11.154;2022-09-09T07:06:31;21.40;90.80
41290;DHT22;36117;46.680;11.154;2022-09-09T07:09:03;21.40;91.40
41290;DHT22;36117;46.680;11.154;2022-09-09T07:11:32;21.10;91.50
41290;DHT22;36117;46.680;11.154;2022-09-09T07:14:00;21.00;91.90
41290;DHT22;36117;46.680;11.154;2022-09-09T07:16:26;21.00;91.40
41290;DHT22;36117;46.680;11.154;2022-09-09T07:18:53;21.00;91.10
41290;DHT22;36117;46.680;11.154;2022-09-09T07:21:24;20.90;91.40
41290;DHT22;36117;46.680;11.154;2022-09-09T07:23:52;20.90;90.70
41290;DHT22;36117;46.680;11.154;2022-09-09T07:26:20;20.90;90.60
41290;DHT22;36117;46.680;11.154;2022-09-09T07:28:46;21.00;89.80
41290;DHT22;36117;46.680;11.154;2022-09-09T07:31:24;21.20;89.90
41290;DHT22;36117;46.680;11.154;2022-09-09T07:33:50;21.50;90.00
41290;DHT22;36117;46.680;11.154;2022-09-09T07:36:20;21.50;90.70
41290;DHT22;36117;46.680;11.154;2022-09-09T07:38:52;21.50;91.10
41290;DHT22;36117;46.680;11.154;2022-09-09T07:41:29;22.00;91.30
41290;DHT22;36117;46.680;11.154;2022-09-09T07:43:56;22.30;90.50
41290;DHT22;36117;46.680;11.154;2022-09-09T07:46:24;22.20;90.80
41290;DHT22;36117;46.680;11.154;2022-09-09T07:48:54;21.90;90.80
41290;DHT22;36117;46.680;11.154;2022-09-09T07:51:26;21.90;90.50
41290;DHT22;36117;46.680;11.154;2022-09-09T07:53:57;21.50;90.00
41290;DHT22;36117;46.680;11.154;2022-09-09T07:56:25;21.20;90.70
41290;DHT22;36117;46.680;11.154;2022-09-09T07:58:53;20.90;91.10
41290;DHT22;36117;46.680;11.154;2022-09-09T08:01:22;21.10;91.50
41290;DHT22;36117;46.680;11.154;2022-09-09T08:04:00;21.10;91.80
41290;DHT22;36117;46.680;11.154;2022-09-09T08:06:32;20.70;92.00
41290;DHT22;36117;46.680;11.154;2022-09-09T08:08:59;20.70;91.70
41290;DHT22;36117;46.680;11.154;2022-09-09T08:11:27;20.90;91.70
41290;DHT22;36117;46.680;11.154;2022-09-09T08:13:54;20.90;90.70
41290;DHT22;36117;46.680;11.154;2022-09-09T08:16:25;20.90;90.40
41290;DHT22;36117;46.680;11.154;2022-09-09T08:18:52;20.90;90.40
41290;DHT22;36117;46.680;11.154;2022-09-09T08:21:20;20.90;90.60
41290;DHT22;36117;46.680;11.154;2022-09-09T08:23:47;20.90;89.80
41290;DHT22;36117;46.680;11.154;2022-09-09T08:26:19;21.00;89.50
41290;DHT22;36117;46.680;11.154;2022-09-09T08:28:46;21.30;89.70
41290;DHT22;36117;46.680;11.154;2022-09-09T08:31:15;21.00;89.00
41290;DHT22;36117;46.680;11.154;2022-09-09T08:33:43;20.70;89.90
41290;DHT22;36117;46.680;11.154;2022-09-09T08:36:13;20.70;90.90
41290;DHT22;36117;46.680;11.154;2022-09-09T08:38:41;20.80;90.80
41290;DHT22;36117;46.680;11.154;2022-09-09T08:44:14;21.40;90.50
41290;DHT22;36117;46.680;11.154;2022-09-09T08:47:07;21.40;89.40
41290;DHT22;36117;46.680;11.154;2022-09-09T08:52:31;21.50;88.90
41290;DHT22;36117;46.680;11.154;2022-09-09T08:55:35;21.60;89.50
41290;DHT22;36117;46.680;11.154;2022-09-09T08:58:13;21.40;89.80
41290;DHT22;36117;46.680;11.154;2022-09-09T09:03:35;21.10;90.80
41290;DHT22;36117;46.680;11.154;2022-09-09T09:09:06;21.00;91.00
41290;DHT22;36117;46.680;11.154;2022-09-09T09:11:44;21.10;91.50
41290;DHT22;36117;46.680;11.154;2022-09-09T09:14:25;21.20;91.00
41290;DHT22;36117;46.680;11.154;2022-09-09T09:16:57;21.70;90.40
41290;DHT22;36117;46.680;11.154;2022-09-09T09:19:24;22.00;89.90
41290;DHT22;36117;46.680;11.154;2022-09-09T09:22:05;21.90;90.50
41290;DHT22;36117;46.680;11.154;2022-09-09T09:24:55;22.10;90.70
41290;DHT22;36117;46.680;11.154;2022-09-09T09:27:24;22.00;90.30
41290;DHT22;36117;46.680;11.154;2022-09-09T09:29:54;22.00;90.20
41290;DHT22;36117;46.680;11.154;2022-09-09T09:32:22;22.40;88.90
41290;DHT22;36117;46.680;11.154;2022-09-09T09:34:59;22.90;86.30
41290;DHT22;36117;46.680;11.154;2022-09-09T09:37:34;22.90;86.40
41290;DHT22;36117;46.680;11.154;2022-09-09T09:40:14;23.10;86.90
41290;DHT22;36117;46.680;11.154;2022-09-09T09:46:00;23.00;83.00
41290;DHT22;36117;46.680;11.154;2022-09-09T09:48:18;22.90;84.40
41290;DHT22;36117;46.680;11.154;2022-09-09T09:50:54;22.70;81.40
41290;DHT22;36117;46.680;11.154;2022-09-09T09:53:31;22.70;81.50
41290;DHT22;36117;46.680;11.154;2022-09-09T09:56:02;23.10;83.90
41290;DHT22;36117;46.680;11.154;2022-09-09T10:01:24;23.60;83.00
41290;DHT22;36117;46.680;11.154;2022-09-09T10:03:53;24.00;81.60
41290;DHT22;36117;46.680;11.154;2022-09-09T10:06:31;24.10;79.00
41290;DHT22;36117;46.680;11.154;2022-09-09T10:08:59;23.90;79.10
41290;DHT22;36117;46.680;11.154;2022-09-09T10:17:27;22.80;84.70
41290;DHT22;36117;46.680;11.154;2022-09-09T10:22:26;21.40;89.00
41290;DHT22;36117;46.680;11.154;2022-09-09T10:33:07;21.40;90.80
41290;DHT22;36117;46.680;11.154;2022-09-09T10:35:52;21.90;90.00
41290;DHT22;36117;46.680;11.154;2022-09-09T10:44:49;22.50;85.20
41290;DHT22;36117;46.680;11.154;2022-09-09T10:47:39;23.10;84.40
41290;DHT22;36117;46.680;11.154;2022-09-09T10:52:41;23.30;82.60
41290;DHT22;36117;46.680;11.154;2022-09-09T10:55:32;23.40;81.10
41290;DHT22;36117;46.680;11.154;2022-09-09T10:58:00;23.70;81.90
41290;DHT22;36117;46.680;11.154;2022-09-09T11:00:42;23.80;81.00
41290;DHT22;36117;46.680;11.154;2022-09-09T11:03:21;24.40;77.80
41290;DHT22;36117;46.680;11.154;2022-09-09T11:06:12;25.30;72.90
41290;DHT22;36117;46.680;11.154;2022-09-09T11:08:40;25.00;73.90
41290;DHT22;36117;46.680;11.154;2022-09-09T11:11:11;25.70;70.70
41290;DHT22;36117;46.680;11.154;2022-09-09T11:13:56;26.00;69.60
41290;DHT22;36117;46.680;11.154;2022-09-09T11:16:40;26.00;70.30
41290;DHT22;36117;46.680;11.154;2022-09-09T11:19:35;26.00;69.80
41290;DHT22;36117;46.680;11.154;2022-09-09T11:25:10;27.20;65.60
41290;DHT22;36117;46.680;11.154;2022-09-09T11:27:59;28.00;62.00
41290;DHT22;36117;46.680;11.154;2022-09-09T11:30:50;27.70;62.20
41290;DHT22;36117;46.680;11.154;2022-09-09T11:36:47;28.20;58.20
41290;DHT22;36117;46.680;11.154;2022-09-09T11:42:25;28.40;57.30
41290;DHT22;36117;46.680;11.154;2022-09-09T11:44:52;28.50;58.10
41290;DHT22;36117;46.680;11.154;2022-09-09T11:47:22;28.40;56.70
41290;DHT22;36117;46.680;11.154;2022-09-09T11:49:50;28.00;57.80
41290;DHT22;36117;46.680;11.154;2022-09-09T11:52:40;27.30;57.60
41290;DHT22;36117;46.680;11.154;2022-09-09T11:55:28;26.40;59.30
41290;DHT22;36117;46.680;11.154;2022-09-09T11:57:59;26.30;61.60
41290;DHT22;36117;46.680;11.154;2022-09-09T12:00:47;26.40;61.20
41290;DHT22;36117;46.680;11.154;2022-09-09T12:03:40;26.00;62.90
41290;DHT22;36117;46.680;11.154;2022-09-09T12:06:31;26.50;62.40
41290;DHT22;36117;46.680;11.154;2022-09-09T12:11:41;26.40;61.70
41290;DHT22;36117;46.680;11.154;2022-09-09T12:14:20;27.10;60.80
41290;DHT22;36117;46.680;11.154;2022-09-09T12:16:46;28.10;58.50
41290;DHT22;36117;46.680;11.154;2022-09-09T12:19:20;28.30;58.10
41290;DHT22;36117;46.680;11.154;2022-09-09T12:24:50;28.10;55.90
41290;DHT22;36117;46.680;11.154;2022-09-09T12:27:22;27.30;58.90
41290;DHT22;36117;46.680;11.154;2022-09-09T12:30:14;28.10;57.00
41290;DHT22;36117;46.680;11.154;2022-09-09T12:32:40;28.40;56.30
41290;DHT22;36117;46.680;11.154;2022-09-09T12:35:11;28.10;57.60
41290;DHT22;36117;46.680;11.154;2022-09-09T12:37:42;27.90;58.30
41290;DHT22;36117;46.680;11.154;2022-09-09T12:40:31;28.20;57.80
41290;DHT22;36117;46.680;11.154;2022-09-09T12:43:01;29.10;56.80
41290;DHT22;36117;46.680;11.154;2022-09-09T12:45:31;29.30;54.90
41290;DHT22;36117;46.680;11.154;2022-09-09T12:48:05;29.20;52.60
41290;DHT22;36117;46.680;11.154;2022-09-09T12:50:35;28.70;53.40
41290;DHT22;36117;46.680;11.154;2022-09-09T12:53:06;28.20;54.30
41290;DHT22;36117;46.680;11.154;2022-09-09T12:55:36;28.20;53.90
41290;DHT22;36117;46.680;11.154;2022-09-09T12:58:05;27.60;56.10
41290;DHT22;36117;46.680;11.154;2022-09-09T13:00:34;28.30;55.10
41290;DHT22;36117;46.680;11.154;2022-09-09T13:03:13;28.50;54.70
41290;DHT22;36117;46.680;11.154;2022-09-09T13:05:41;28.90;53.50
41290;DHT22;36117;46.680;11.154;2022-09-09T13:08:12;29.30;53.80
41290;DHT22;36117;46.680;11.154;2022-09-09T13:10:51;29.60;49.90
41290;DHT22;36117;46.680;11.154;2022-09-09T13:13:35;29.20;51.40
41290;DHT22;36117;46.680;11.154;2022-09-09T13:16:03;28.20;53.00
41290;DHT22;36117;46.680;11.154;2022-09-09T13:18:33;28.10;52.20
41290;DHT22;36117;46.680;11.154;2022-09-09T13:21:00;28.40;52.70
41290;DHT22;36117;46.680;11.154;2022-09-09T13:23:29;28.30;52.90
41290;DHT22;36117;46.680;11.154;2022-09-09T13:25:59;28.10;53.30
41290;DHT22;36117;46.680;11.154;2022-09-09T13:28:27;28.50;50.40
41290;DHT22;36117;46.680;11.154;2022-09-09T13:31:19;28.30;50.90
41290;DHT22;36117;46.680;11.154;2022-09-09T13:33:45;28.40;49.70
41290;DHT22;36117;46.680;11.154;2022-09-09T13:36:12;28.10;50.90
41290;DHT22;36117;46.680;11.154;2022-09-09T13:41:22;27.90;52.70
41290;DHT22;36117;46.680;11.154;2022-09-09T13:43:50;28.30;52.20
41290;DHT22;36117;46.680;11.154;2022-09-09T13:46:41;28.60;52.50
41290;DHT22;36117;46.680;11.154;2022-09-09T13:51:42;28.60;49.10
41290;DHT22;36117;46.680;11.154;2022-09-09T13:54:13;28.20;48.00
41290;DHT22;36117;46.680;11.154;2022-09-09T13:56:40;28.50;51.10
41290;DHT22;36117;46.680;11.154;2022-09-09T13:59:14;28.60;50.50
41290;DHT22;36117;46.680;11.154;2022-09-09T14:01:40;28.90;49.70
41290;DHT22;36117;46.680;11.154;2022-09-09T14:04:07;28.80;49.40
41290;DHT22;36117;46.680;11.154;2022-09-09T14:06:35;28.50;50.40
41290;DHT22;36117;46.680;11.154;2022-09-09T14:09:02;28.20;51.70
41290;DHT22;36117;46.680;11.154;2022-09-09T14:11:28;28.40;51.70
41290;DHT22;36117;46.680;11.154;2022-09-09T14:13:54;28.40;51.90
41290;DHT22;36117;46.680;11.154;2022-09-09T14:16:21;28.10;52.10
41290;DHT22;36117;46.680;11.154;2022-09-09T14:18:47;28.00;52.50
41290;DHT22;36117;46.680;11.154;2022-09-09T14:21:13;27.90;51.80
41290;DHT22;36117;46.680;11.154;2022-09-09T14:23:41;27.60;53.10
41290;DHT22;36117;46.680;11.154;2022-09-09T14:26:07;27.80;53.60
41290;DHT22;36117;46.680;11.154;2022-09-09T14:28:35;27.80;53.60
41290;DHT22;36117;46.680;11.154;2022-09-09T14:31:03;28.10;53.70
41290;DHT22;36117;46.680;11.154;2022-09-09T14:33:30;28.30;54.00
41290;DHT22;36117;46.680;11.154;2022-09-09T14:36:00;27.90;53.20
41290;DHT22;36117;46.680;11.154;2022-09-09T14:38:30;27.50;54.60
41290;DHT22;36117;46.680;11.154;2022-09-09T14:40:57;27.80;54.20
41290;DHT22;36117;46.680;11.154;2022-09-09T14:43:24;28.00;54.80
41290;DHT22;36117;46.680;11.154;2022-09-09T14:45:50;28.00;54.60
41290;DHT22;36117;46.680;11.154;2022-09-09T14:48:17;28.10;54.60
41290;DHT22;36117;46.680;11.154;2022-09-09T14:50:43;28.10;54.70
41290;DHT22;36117;46.680;11.154;2022-09-09T14:53:09;27.90;55.20
41290;DHT22;36117;46.680;11.154;2022-09-09T14:55:36;27.60;55.30
41290;DHT22;36117;46.680;11.154;2022-09-09T14:58:03;27.40;56.70
41290;DHT22;36117;46.680;11.154;2022-09-09T15:00:29;27.20;57.10
41290;DHT22;36117;46.680;11.154;2022-09-09T15:02:55;27.30;58.10
41290;DHT22;36117;46.680;11.154;2022-09-09T15:05:21;27.00;59.50
41290;DHT22;36117;46.680;11.154;2022-09-09T15:07:47;26.90;60.80
41290;DHT22;36117;46.680;11.154;2022-09-09T15:10:16;26.70;62.70
41290;DHT22;36117;46.680;11.154;2022-09-09T15:12:44;26.10;63.50
41290;DHT22;36117;46.680;11.154;2022-09-09T15:15:10;25.60;66.30
41290;DHT22;36117;46.680;11.154;2022-09-09T15:17:36;25.10;70.50
41290;DHT22;36117;46.680;11.154;2022-09-09T15:20:04;24.60;73.30
41290;DHT22;36117;46.680;11.154;2022-09-09T15:22:31;24.70;74.00
41290;DHT22;36117;46.680;11.154;2022-09-09T15:24:57;24.90;74.20
41290;DHT22;36117;46.680;11.154;2022-09-09T15:27:23;25.20;73.10
41290;DHT22;36117;46.680;11.154;2022-09-09T15:29:49;25.50;72.50
41290;DHT22;36117;46.680;11.154;2022-09-09T15:32:17;25.80;72.30
41290;DHT22;36117;46.680;11.154;2022-09-09T15:34:43;25.90;72.10
41290;DHT22;36117;46.680;11.154;2022-09-09T15:37:12;25.50;71.20
41290;DHT22;36117;46.680;11.154;2022-09-09T15:39:40;25.60;72.30
41290;DHT22;36117;46.680;11.154;2022-09-09T15:42:07;25.80;70.00
41290;DHT22;36117;46.680;11.154;2022-09-09T15:44:43;26.20;68.30
41290;DHT22;36117;46.680;11.154;2022-09-09T15:47:13;26.50;66.70
41290;DHT22;36117;46.680;11.154;2022-09-09T15:49:39;26.70;66.70
41290;DHT22;36117;46.680;11.154;2022-09-09T15:52:05;26.60;65.50
41290;DHT22;36117;46.680;11.154;2022-09-09T15:54:33;26.70;65.50
41290;DHT22;36117;46.680;11.154;2022-09-09T15:57:01;27.00;64.20
41290;DHT22;36117;46.680;11.154;2022-09-09T15:59:29;26.80;62.00
41290;DHT22;36117;46.680;11.154;2022-09-09T16:01:56;26.40;60.90
41290;DHT22;36117;46.680;11.154;2022-09-09T16:04:23;26.20;59.20
41290;DHT22;36117;46.680;11.154;2022-09-09T16:06:54;25.80;60.30
41290;DHT22;36117;46.680;11.154;2022-09-09T16:09:21;25.90;60.10
41290;DHT22;36117;46.680;11.154;2022-09-09T16:11:47;26.10;60.90
41290;DHT22;36117;46.680;11.154;2022-09-09T16:14:14;26.20;60.90
41290;DHT22;36117;46.680;11.154;2022-09-09T16:16:41;26.30;59.90
41290;DHT22;36117;46.680;11.154;2022-09-09T16:19:10;26.20;60.00
41290;DHT22;36117;46.680;11.154;2022-09-09T16:21:44;26.10;60.40
41290;DHT22;36117;46.680;11.154;2022-09-09T16:24:14;25.90;61.60
41290;DHT22;36117;46.680;11.154;2022-09-09T16:26:42;25.70;62.30
41290;DHT22;36117;46.680;11.154;2022-09-09T16:29:10;25.80;63.40
41290;DHT22;36117;46.680;11.154;2022-09-09T16:31:37;25.90;64.50
41290;DHT22;36117;46.680;11.154;2022-09-09T16:34:03;25.60;65.80
41290;DHT22;36117;46.680;11.154;2022-09-09T16:36:32;25.00;67.40
41290;DHT22;36117;46.680;11.154;2022-09-09T16:39:04;24.90;67.40
41290;DHT22;36117;46.680;11.154;2022-09-09T16:41:32;24.00;70.10
41290;DHT22;36117;46.680;11.154;2022-09-09T16:43:59;24.00;70.80
41290;DHT22;36117;46.680;11.154;2022-09-09T16:46:28;24.30;69.80
41290;DHT22;36117;46.680;11.154;2022-09-09T16:48:56;24.70;69.10
41290;DHT22;36117;46.680;11.154;2022-09-09T16:51:28;24.70;69.40
41290;DHT22;36117;46.680;11.154;2022-09-09T16:53:55;24.70;69.30
41290;DHT22;36117;46.680;11.154;2022-09-09T16:56:27;24.50;70.70
41290;DHT22;36117;46.680;11.154;2022-09-09T16:58:56;24.50;70.30
41290;DHT22;36117;46.680;11.154;2022-09-09T17:01:23;24.90;68.70
41290;DHT22;36117;46.680;11.154;2022-09-09T17:04:00;25.10;68.60
41290;DHT22;36117;46.680;11.154;2022-09-09T17:06:28;24.90;69.50
41290;DHT22;36117;46.680;11.154;2022-09-09T17:08:58;24.80;69.50
41290;DHT22;36117;46.680;11.154;2022-09-09T17:11:25;25.20;67.80
41290;DHT22;36117;46.680;11.154;2022-09-09T17:13:52;25.10;68.40
41290;DHT22;36117;46.680;11.154;2022-09-09T17:16:21;24.10;71.30
41290;DHT22;36117;46.680;11.154;2022-09-09T17:18:51;23.20;75.10
41290;DHT22;36117;46.680;11.154;2022-09-09T17:21:20;23.10;74.90
41290;DHT22;36117;46.680;11.154;2022-09-09T17:23:46;23.30;75.60
41290;DHT22;36117;46.680;11.154;2022-09-09T17:26:16;23.50;74.30